Time;durP1;ratioP1;P1;durP2;ratioP2;P2;SDS_P1;SDS_P2;PMS_P1;PMS_P2;Temp;Humidity;BMP_temperature;BMP_pressure;BME280_temperature;BME280_humidity;BME280_pressure;Samples;Min_cycle;Max_cycle;Signal;HPM_P1;HPM_P2
2023/09/22 00:01:12;;;;;;;2.97;1.00;;;;;;;11.45;100.00;98857.38;4994229;28;20092;-68
2023/09/22 00:03:56;;;;;;;2.88;0.47;;;;;;;11.42;100.00;98858.88;5021715;28;20072;-67
2023/09/22 00:06:41;;;;;;;3.22;0.60;;;;;;;11.47;100.00;98863.41;4983923;28;20048;-68
2023/09/22 00:09:25;;;;;;;4.78;0.90;;;;;;;11.50;100.00;98860.75;4993901;28;20108;-68
2023/09/22 00:12:09;;;;;;;1.45;0.40;;;;;;;11.50;100.00;98863.53;4994391;28;20611;-68
2023/09/22 00:14:53;;;;;;;3.50;0.77;;;;;;;11.53;100.00;98856.50;5021312;28;20037;-68
2023/09/22 00:17:37;;;;;;;4.28;0.80;;;;;;;11.66;100.00;98855.41;5022875;28;20099;-68
2023/09/22 00:20:22;;;;;;;2.47;0.50;;;;;;;11.59;100.00;98855.16;5005921;28;20068;-68
2023/09/22 00:23:06;;;;;;;2.72;0.70;;;;;;;11.62;100.00;98849.72;5010665;28;20044;-68
2023/09/22 00:25:50;;;;;;;2.25;0.70;;;;;;;11.67;100.00;98853.44;5001108;28;20072;-68
2023/09/22 00:28:34;;;;;;;3.72;0.70;;;;;;;11.68;100.00;98853.09;5014599;28;20099;-68
2023/09/22 00:31:18;;;;;;;4.00;0.98;;;;;;;11.69;100.00;98857.50;5035967;28;20136;-67
2023/09/22 00:34:02;;;;;;;3.05;0.63;;;;;;;11.68;100.00;98849.50;5023580;28;20090;-68
2023/09/22 00:36:48;;;;;;;4.25;1.50;;;;;;;11.69;100.00;98849.16;5006005;28;20121;-68
2023/09/22 00:39:32;;;;;;;4.68;1.02;;;;;;;11.74;100.00;98851.72;5034871;28;20121;-68
2023/09/22 00:42:16;;;;;;;3.08;0.60;;;;;;;11.77;100.00;98845.47;5034666;28;20115;-68
2023/09/22 00:45:00;;;;;;;2.97;1.00;;;;;;;11.78;100.00;98841.56;5008289;28;20393;-68
2023/09/22 00:47:45;;;;;;;3.38;0.88;;;;;;;11.78;100.00;98841.56;5023154;28;20068;-67
2023/09/22 00:50:29;;;;;;;2.55;0.90;;;;;;;11.85;100.00;98847.38;5001226;28;20366;-68
2023/09/22 00:53:13;;;;;;;1.85;0.65;;;;;;;11.85;100.00;98849.31;5024500;28;20513;-68
2023/09/22 00:55:57;;;;;;;3.08;0.70;;;;;;;11.87;100.00;98837.88;5021259;28;20104;-68
2023/09/22 00:58:41;;;;;;;2.67;0.73;;;;;;;11.89;100.00;98830.00;5018878;28;20102;-68
2023/09/22 01:01:26;;;;;;;3.10;0.82;;;;;;;11.93;100.00;98826.19;5009441;28;20511;-68
2023/09/22 01:04:13;;;;;;;2.40;0.85;;;;;;;11.95;100.00;98812.78;5012889;28;20068;-68
2023/09/22 01:06:57;;;;;;;4.32;0.80;;;;;;;11.96;100.00;98819.13;5025991;28;20049;-67
2023/09/22 01:09:41;;;;;;;3.08;0.68;;;;;;;11.97;100.00;98826.31;5028200;28;20444;-67
2023/09/22 01:12:25;;;;;;;2.95;0.70;;;;;;;11.98;100.00;98828.78;5038438;28;20037;-68
2023/09/22 01:15:10;;;;;;;5.00;0.93;;;;;;;12.00;100.00;98828.41;4997588;28;20044;-67
2023/09/22 01:17:54;;;;;;;3.10;0.80;;;;;;;12.04;100.00;98818.22;5013403;28;20119;-68
2023/09/22 01:20:42;;;;;;;2.45;0.70;;;;;;;12.04;100.00;98816.25;5024552;28;20040;-68
2023/09/22 01:23:26;;;;;;;3.03;0.60;;;;;;;12.05;100.00;98798.41;5024673;28;20390;-68
2023/09/22 01:26:10;;;;;;;3.42;0.75;;;;;;;12.05;100.00;98798.41;5024520;28;20355;-68
2023/09/22 01:28:55;;;;;;;1.35;0.50;;;;;;;12.09;100.00;98809.66;5038362;28;20113;-68
2023/09/22 01:31:42;;;;;;;4.00;0.68;;;;;;;12.08;100.00;98816.38;5010742;28;20096;-68
2023/09/22 01:34:25;;;;;;;2.83;0.63;;;;;;;12.07;100.00;98823.91;5039574;28;20110;-67
2023/09/22 01:37:10;;;;;;;3.25;0.68;;;;;;;12.16;100.00;98809.09;5025957;28;20508;-68
2023/09/22 01:39:55;;;;;;;2.78;0.70;;;;;;;12.13;100.00;98801.44;5021772;28;20044;-68
2023/09/22 01:42:39;;;;;;;2.95;0.60;;;;;;;12.12;100.00;98802.56;5023991;28;20068;-67
2023/09/22 01:45:23;;;;;;;2.72;0.63;;;;;;;12.13;100.00;98799.44;5013465;28;20512;-68
2023/09/22 01:48:08;;;;;;;2.55;0.60;;;;;;;12.11;100.00;98803.75;5024166;28;20072;-68
2023/09/22 01:50:52;;;;;;;3.88;0.70;;;;;;;12.12;100.00;98803.41;5005371;28;20107;-68
2023/09/22 01:53:36;;;;;;;2.60;0.80;;;;;;;12.14;100.00;98812.19;5024098;28;20028;-68
2023/09/22 01:56:21;;;;;;;2.58;0.57;;;;;;;12.15;100.00;98811.06;5040299;28;20060;-67
2023/09/22 01:59:05;;;;;;;1.95;0.70;;;;;;;12.16;100.00;98814.66;5034580;28;20425;-68
2023/09/22 02:01:49;;;;;;;3.42;0.68;;;;;;;12.13;100.00;98816.16;5043590;28;20500;-67
2023/09/22 02:04:33;;;;;;;2.38;0.63;;;;;;;12.11;100.00;98815.69;5022193;28;20043;-67
2023/09/22 02:07:18;;;;;;;5.25;0.70;;;;;;;12.17;100.00;98814.28;5019104;28;20558;-67
2023/09/22 02:10:02;;;;;;;3.45;0.70;;;;;;;12.13;100.00;98818.13;5043547;28;20097;-68
2023/09/22 02:12:46;;;;;;;2.00;0.52;;;;;;;12.11;100.00;98817.66;5032034;28;20040;-67
2023/09/22 02:15:30;;;;;;;2.15;0.80;;;;;;;12.06;100.00;98818.69;5041549;28;20044;-68
2023/09/22 02:18:16;;;;;;;2.15;0.60;;;;;;;12.05;100.00;98817.88;5020414;28;20043;-68
2023/09/22 02:21:00;;;;;;;3.13;0.60;;;;;;;12.07;100.00;98821.13;5026564;28;20060;-68
2023/09/22 02:23:44;;;;;;;2.65;0.85;;;;;;;12.09;100.00;98818.00;5014760;28;20144;-68
2023/09/22 02:26:28;;;;;;;1.55;0.73;;;;;;;12.12;100.00;98820.09;5042575;28;20048;-68
2023/09/22 02:29:12;;;;;;;2.83;0.68;;;;;;;12.10;100.00;98811.28;5017150;28;20043;-68
2023/09/22 02:31:56;;;;;;;3.40;0.95;;;;;;;12.07;100.00;98809.19;5028985;28;20064;-68
2023/09/22 02:34:40;;;;;;;3.17;0.65;;;;;;;12.07;100.00;98810.00;5029195;28;20103;-68
2023/09/22 02:37:24;;;;;;;3.75;0.80;;;;;;;12.06;100.00;98810.34;5018412;28;20048;-68
2023/09/22 02:40:09;;;;;;;2.50;0.63;;;;;;;12.05;100.00;98817.88;5002105;28;20527;-68
2023/09/22 02:42:54;;;;;;;3.53;0.90;;;;;;;12.03;100.00;98824.94;5034838;28;20047;-68
2023/09/22 02:45:38;;;;;;;2.97;0.80;;;;;;;12.05;100.00;98817.06;5042826;28;20040;-68
2023/09/22 02:48:22;;;;;;;2.17;0.77;;;;;;;12.02;100.00;98812.19;4995729;28;20048;-68
2023/09/22 02:51:08;;;;;;;1.65;0.80;;;;;;;12.01;100.00;98814.16;5038471;28;20043;-67
2023/09/22 02:53:55;;;;;;;2.28;0.50;;;;;;;12.02;100.00;98815.78;5029037;28;20047;-68
2023/09/22 02:56:39;;;;;;;2.85;0.70;;;;;;;12.01;100.00;98816.16;5011007;28;20472;-68
2023/09/22 02:59:23;;;;;;;2.65;0.50;;;;;;;11.98;100.00;98812.06;5014735;28;20052;-68
2023/09/22 03:02:07;;;;;;;1.80;0.63;;;;;;;11.99;100.00;98819.25;5001548;28;20497;-68
2023/09/22 03:04:51;;;;;;;2.03;0.60;;;;;;;11.98;100.00;98822.38;5050294;28;20108;-67
2023/09/22 03:07:36;;;;;;;2.92;0.60;;;;;;;11.95;100.00;98818.34;5029469;28;20120;-68
2023/09/22 03:10:20;;;;;;;1.65;0.60;;;;;;;11.94;100.00;98832.56;5014475;28;20052;-68
2023/09/22 03:13:04;;;;;;;1.48;0.40;;;;;;;11.94;100.00;98840.91;5028206;28;20044;-68
2023/09/22 03:15:48;;;;;;;2.83;0.63;;;;;;;11.91;100.00;98850.75;5052971;28;20072;-68
2023/09/22 03:18:32;;;;;;;1.08;0.40;;;;;;;11.89;100.00;98847.50;5050870;28;20048;-68
2023/09/22 03:21:19;;;;;;;2.63;0.77;;;;;;;11.89;100.00;98852.25;5042441;28;20048;-68
2023/09/22 03:24:04;;;;;;;5.35;0.88;;;;;;;11.84;100.00;98851.31;5014877;28;20480;-68
2023/09/22 03:26:48;;;;;;;2.53;0.80;;;;;;;11.90;100.00;98853.91;5042319;28;20040;-68
2023/09/22 03:29:32;;;;;;;0.98;0.40;;;;;;;11.89;100.00;98863.38;5028022;28;20075;-68
2023/09/22 03:32:18;;;;;;;3.67;0.60;;;;;;;11.85;100.00;98861.28;5029669;28;20088;-68
2023/09/22 03:35:07;;;;;;;2.45;0.70;;;;;;;11.86;100.00;98859.31;5042522;28;20047;-67
2023/09/22 03:37:52;;;;;;;3.67;0.63;;;;;;;11.84;100.00;98861.63;5042595;28;20079;-67
2023/09/22 03:40:41;;;;;;;1.90;0.50;;;;;;;11.83;100.00;98863.56;5031783;28;20186;-68
2023/09/22 03:43:25;;;;;;;2.45;0.60;;;;;;;11.82;100.00;98864.72;5028427;28;20044;-68
2023/09/22 03:46:10;;;;;;;2.22;0.60;;;;;;;11.75;100.00;98870.03;5013868;28;20051;-68
2023/09/22 03:48:54;;;;;;;1.63;0.40;;;;;;;11.74;100.00;98865.63;5027937;28;20365;-68
2023/09/22 03:51:38;;;;;;;1.90;0.57;;;;;;;11.74;100.00;98867.59;5027760;28;20040;-68
2023/09/22 03:54:23;;;;;;;3.03;0.60;;;;;;;11.74;100.00;98876.75;5027633;28;20438;-67
2023/09/22 03:57:07;;;;;;;2.22;0.57;;;;;;;11.66;100.00;98877.63;5041208;28;20130;-68
2023/09/22 03:59:51;;;;;;;1.85;0.35;;;;;;;11.72;100.00;98881.03;5015393;28;20512;-68
2023/09/22 04:02:35;;;;;;;2.63;0.50;;;;;;;11.63;100.00;98883.88;5027424;28;20052;-67
2023/09/22 04:05:19;;;;;;;2.53;0.50;;;;;;;11.62;100.00;98877.53;5038460;28;20067;-67
2023/09/22 04:08:03;;;;;;;2.95;0.60;;;;;;;11.57;100.00;98880.50;5029742;28;20067;-68
2023/09/22 04:10:47;;;;;;;1.95;0.52;;;;;;;11.52;100.00;98880.72;5027220;28;20102;-68
2023/09/22 04:13:31;;;;;;;2.33;0.73;;;;;;;11.45;100.00;98882.41;5027278;28;20179;-68
2023/09/22 04:16:15;;;;;;;1.15;0.50;;;;;;;11.46;100.00;98884.03;5022299;28;20263;-67
2023/09/22 04:18:59;;;;;;;1.70;0.40;;;;;;;11.31;100.00;98886.28;5025070;28;20118;-68
2023/09/22 04:21:46;;;;;;;3.85;0.70;;;;;;;11.29;100.00;98887.78;5039620;28;20420;-68
2023/09/22 04:24:32;;;;;;;1.30;0.30;;;;;;;11.23;100.00;98886.31;5027762;28;20043;-67
2023/09/22 04:27:16;;;;;;;1.58;0.50;;;;;;;11.15;100.00;98890.81;5013491;28;20048;-68
2023/09/22 04:30:00;;;;;;;0.88;0.30;;;;;;;11.09;100.00;98892.97;5027120;28;20504;-68
2023/09/22 04:32:44;;;;;;;0.88;0.52;;;;;;;11.02;100.00;98894.66;5021452;28;20096;-67
2023/09/22 04:35:32;;;;;;;0.63;0.40;;;;;;;10.99;100.00;98892.53;5028778;28;20040;-68
2023/09/22 04:38:17;;;;;;;1.20;0.55;;;;;;;10.90;100.00;98890.63;5027965;28;20075;-67
2023/09/22 04:41:03;;;;;;;1.95;0.55;;;;;;;10.81;100.00;98903.75;5041074;28;20063;-67
2023/09/22 04:43:47;;;;;;;2.22;0.75;;;;;;;10.74;100.00;98907.03;5022396;28;20098;-67
2023/09/22 04:46:31;;;;;;;1.02;0.50;;;;;;;10.66;100.00;98912.63;5041453;28;20101;-67
2023/09/22 04:49:15;;;;;;;1.23;0.50;;;;;;;10.60;100.00;98914.78;5040983;28;20055;-67
2023/09/22 04:52:02;;;;;;;2.17;0.50;;;;;;;10.54;100.00;98910.56;5026712;28;20048;-67
2023/09/22 04:54:47;;;;;;;1.25;0.45;;;;;;;10.49;100.00;98919.88;5001365;28;20076;-68
2023/09/22 04:57:31;;;;;;;1.95;0.50;;;;;;;10.44;100.00;98933.13;5023395;28;20520;-67
2023/09/22 05:00:22;;;;;;;2.15;0.70;;;;;;;10.41;100.00;98929.06;5048109;28;20138;-68
2023/09/22 05:03:07;;;;;;;2.28;0.52;;;;;;;10.39;100.00;98936.91;5017706;28;20460;-67
2023/09/22 05:05:54;;;;;;;1.20;0.50;;;;;;;10.32;100.00;98939.38;5051477;28;20505;-67
2023/09/22 05:08:39;;;;;;;1.42;0.40;;;;;;;10.28;100.00;98952.28;5031553;28;20103;-68
2023/09/22 05:11:23;;;;;;;1.20;0.55;;;;;;;10.26;100.00;98954.53;5040908;28;20581;-67
2023/09/22 05:14:08;;;;;;;1.27;0.40;;;;;;;10.17;100.00;98957.34;5004901;28;20095;-67
2023/09/22 05:16:51;;;;;;;2.13;0.60;;;;;;;10.14;100.00;98959.94;5013293;28;20480;-68
2023/09/22 05:19:35;;;;;;;0.98;0.50;;;;;;;10.11;100.00;98968.91;5002582;28;20570;-67
2023/09/22 05:22:20;;;;;;;1.48;0.57;;;;;;;10.05;100.00;98982.13;5040855;28;20555;-67
2023/09/22 05:25:05;;;;;;;1.95;0.60;;;;;;;10.01;100.00;98970.91;5016313;28;20037;-68
2023/09/22 05:27:49;;;;;;;2.83;0.60;;;;;;;9.97;100.00;98985.72;5040868;28;20070;-68
2023/09/22 05:30:34;;;;;;;3.35;0.47;;;;;;;9.94;100.00;98992.75;5007275;28;20447;-67
2023/09/22 05:33:18;;;;;;;1.92;0.60;;;;;;;9.94;100.00;98989.16;5026919;28;20059;-68
2023/09/22 05:36:02;;;;;;;2.65;0.55;;;;;;;9.93;100.00;98991.13;5030726;28;20060;-67
2023/09/22 05:38:46;;;;;;;0.80;0.40;;;;;;;9.87;100.00;99006.31;5018330;28;20098;-67
2023/09/22 05:41:30;;;;;;;2.95;0.57;;;;;;;9.81;100.00;99011.19;5014241;28;20043;-68
2023/09/22 05:44:17;;;;;;;1.27;0.50;;;;;;;9.82;100.00;99012.00;5002943;28;20566;-68
2023/09/22 05:47:02;;;;;;;1.30;0.50;;;;;;;9.80;100.00;99019.81;5011389;28;20111;-67
2023/09/22 05:49:47;;;;;;;3.75;0.50;;;;;;;9.78;100.00;99022.13;5002662;28;20106;-67
2023/09/22 05:52:31;;;;;;;1.75;0.68;;;;;;;9.76;100.00;99027.19;5025417;28;20048;-68
2023/09/22 05:55:15;;;;;;;2.83;0.60;;;;;;;9.73;100.00;99030.59;5029767;28;20531;-67
2023/09/22 05:58:00;;;;;;;2.53;0.47;;;;;;;9.70;100.00;99039.56;5009655;28;20072;-67
2023/09/22 06:00:44;;;;;;;2.05;0.57;;;;;;;9.73;100.00;99041.69;5029808;28;20264;-67
2023/09/22 06:03:28;;;;;;;0.70;0.40;;;;;;;9.67;100.00;99038.25;5043333;28;20044;-67
2023/09/22 06:06:15;;;;;;;1.58;0.70;;;;;;;9.66;100.00;99049.66;5053623;28;20442;-67
2023/09/22 06:09:00;;;;;;;2.63;0.68;;;;;;;9.63;100.00;99043.59;5027379;28;20101;-67
2023/09/22 06:11:43;;;;;;;2.25;0.65;;;;;;;9.63;100.00;99051.13;5043951;28;20071;-67
2023/09/22 06:14:28;;;;;;;1.70;0.50;;;;;;;9.67;100.00;99065.13;5012890;28;20080;-68
2023/09/22 06:17:12;;;;;;;1.95;0.65;;;;;;;9.65;100.00;99072.97;5028320;28;20117;-67
2023/09/22 06:19:56;;;;;;;1.67;0.60;;;;;;;9.65;100.00;99071.03;5029274;28;20102;-67
2023/09/22 06:22:44;;;;;;;2.78;0.65;;;;;;;9.69;100.00;99083.09;5007810;28;20068;-67
2023/09/22 06:25:28;;;;;;;1.35;0.55;;;;;;;9.70;100.00;99093.06;5006931;28;20091;-67
2023/09/22 06:28:14;;;;;;;2.55;0.60;;;;;;;9.73;100.00;99092.41;5028396;28;20103;-68
2023/09/22 06:31:02;;;;;;;1.13;0.55;;;;;;;9.76;100.00;99088.97;5029026;28;20095;-67
2023/09/22 06:33:48;;;;;;;3.53;0.60;;;;;;;9.80;100.00;99089.94;5027108;28;20657;-67
2023/09/22 06:36:32;;;;;;;1.00;0.50;;;;;;;9.87;100.00;99094.22;5024404;28;20043;-67
2023/09/22 06:39:16;;;;;;;2.17;0.50;;;;;;;9.90;100.00;99091.63;5022498;28;20083;-70
2023/09/22 06:42:00;;;;;;;1.38;0.40;;;;;;;9.98;100.00;99096.34;5016052;28;20043;-70
2023/09/22 06:44:45;;;;;;;1.55;0.63;;;;;;;10.01;100.00;99104.03;5028656;28;20047;-70
2023/09/22 06:47:29;;;;;;;1.20;0.40;;;;;;;10.07;100.00;99118.56;5029158;28;20040;-69
2023/09/22 06:50:13;;;;;;;1.65;0.40;;;;;;;10.11;100.00;99121.50;5017500;28;20044;-69
2023/09/22 06:52:58;;;;;;;0.93;0.40;;;;;;;10.20;100.00;99134.25;5013670;28;20113;-68
2023/09/22 06:55:42;;;;;;;1.70;0.85;;;;;;;10.25;100.00;99133.25;5042934;28;20060;-68
2023/09/22 06:58:26;;;;;;;2.92;0.68;;;;;;;10.29;100.00;99126.75;5027448;28;20102;-67
2023/09/22 07:01:11;;;;;;;1.17;0.40;;;;;;;10.36;100.00;99123.47;5027955;28;20075;-68
2023/09/22 07:03:56;;;;;;;1.65;0.47;;;;;;;10.40;100.00;99132.00;5018921;28;20848;-68
2023/09/22 07:06:41;;;;;;;2.25;0.40;;;;;;;10.47;100.00;99133.16;5033502;28;20080;-68
2023/09/22 07:09:25;;;;;;;2.88;0.70;;;;;;;10.56;100.00;99140.63;5016240;28;20063;-68
2023/09/22 07:12:09;;;;;;;1.85;0.82;;;;;;;10.66;100.00;99143.88;5001669;28;20052;-68
2023/09/22 07:14:53;;;;;;;4.30;0.80;;;;;;;10.77;100.00;99146.34;5028949;28;20055;-68
2023/09/22 07:17:37;;;;;;;1.35;0.50;;;;;;;10.84;100.00;99153.03;5028830;28;20511;-68
2023/09/22 07:20:21;;;;;;;0.40;0.30;;;;;;;10.93;100.00;99159.38;5028322;28;20535;-67
2023/09/22 07:23:05;;;;;;;1.45;0.70;;;;;;;11.05;100.00;99169.81;5040129;28;20396;-68
2023/09/22 07:26:03;;;;;;;0.77;0.40;;;;;;;11.17;100.00;99175.53;5015677;28;20063;-68
2023/09/22 07:28:47;;;;;;;2.08;0.63;;;;;;;11.28;100.00;99184.34;5016076;28;20094;-68
2023/09/22 07:31:31;;;;;;;1.15;0.60;;;;;;;11.39;100.00;99180.06;5028358;28;20111;-68
2023/09/22 07:34:15;;;;;;;2.28;0.60;;;;;;;11.52;100.00;99182.94;5028548;28;20072;-67
2023/09/22 07:37:00;;;;;;;3.60;0.70;;;;;;;11.66;100.00;99183.53;5015165;28;20132;-68
2023/09/22 07:39:43;;;;;;;1.35;0.60;;;;;;;11.77;100.00;99181.19;5041862;28;20040;-68
2023/09/22 07:42:31;;;;;;;1.70;0.52;;;;;;;11.89;100.00;99186.06;5027816;28;20104;-68
2023/09/22 07:45:15;;;;;;;1.85;0.60;;;;;;;12.02;100.00;99196.97;5016522;28;20039;-68
2023/09/22 07:47:59;;;;;;;1.50;0.60;;;;;;;12.17;100.00;99197.53;5041960;28;20102;-68
2023/09/22 07:50:43;;;;;;;2.30;0.60;;;;;;;12.35;100.00;99199.06;5022438;28;20051;-68
2023/09/22 07:53:28;;;;;;;2.67;0.57;;;;;;;12.52;100.00;99203.69;5002644;28;20075;-68
2023/09/22 07:56:12;;;;;;;1.40;0.73;;;;;;;12.66;100.00;99204.25;5027744;28;20047;-68
2023/09/22 07:58:58;;;;;;;1.45;0.50;;;;;;;12.81;100.00;99202.81;5057051;28;20048;-68
2023/09/22 08:01:43;;;;;;;1.27;0.60;;;;;;;12.92;100.00;99211.56;5042251;28;20071;-68
2023/09/22 08:04:27;;;;;;;1.65;0.50;;;;;;;13.05;100.00;99218.84;5044525;28;20043;-68
2023/09/22 08:07:10;;;;;;;2.60;0.60;;;;;;;13.19;100.00;99210.19;5032684;28;20110;-68
2023/09/22 08:09:55;;;;;;;2.00;0.70;;;;;;;13.34;100.00;99222.69;5027487;28;20183;-68
2023/09/22 08:12:40;;;;;;;3.00;0.82;;;;;;;13.51;100.00;99228.09;5041536;28;20067;-68
2023/09/22 08:15:25;;;;;;;2.15;0.65;;;;;;;13.68;100.00;99227.09;5026776;28;20629;-68
2023/09/22 08:18:10;;;;;;;1.75;0.60;;;;;;;13.85;100.00;99240.81;4994406;28;20088;-68
2023/09/22 08:20:54;;;;;;;2.28;0.60;;;;;;;14.07;100.00;99244.34;5041542;28;20094;-67
2023/09/22 08:23:38;;;;;;;2.47;0.50;;;;;;;14.26;100.00;99247.38;5041131;28;20044;-68
2023/09/22 08:26:23;;;;;;;2.72;0.68;;;;;;;14.42;100.00;99249.44;5027917;28;20051;-67
2023/09/22 08:29:09;;;;;;;2.17;0.88;;;;;;;14.60;100.00;99252.81;5015933;28;20048;-67
2023/09/22 08:31:54;;;;;;;4.15;1.23;;;;;;;14.75;100.00;99252.91;5040306;28;20503;-67
2023/09/22 08:34:38;;;;;;;2.58;0.80;;;;;;;14.93;100.00;99264.66;5027570;28;20071;-67
2023/09/22 08:37:23;;;;;;;2.97;0.70;;;;;;;15.11;100.00;99267.16;5027455;28;20044;-67
2023/09/22 08:40:08;;;;;;;3.95;0.70;;;;;;;15.26;100.00;99266.38;5026946;28;20106;-68
2023/09/22 08:42:54;;;;;;;3.25;0.60;;;;;;;15.47;100.00;99282.16;5027132;28;20048;-67
2023/09/22 08:45:39;;;;;;;2.58;0.77;;;;;;;15.64;100.00;99285.44;5031310;28;20040;-68
2023/09/22 08:48:24;;;;;;;2.58;0.50;;;;;;;15.81;100.00;99287.13;5027478;28;20067;-67
2023/09/22 08:51:09;;;;;;;2.80;0.43;;;;;;;15.98;100.00;99291.56;5015676;28;20055;-67
2023/09/22 08:53:53;;;;;;;3.50;0.50;;;;;;;16.16;100.00;99297.66;5049104;28;20515;-68
2023/09/22 08:56:38;;;;;;;4.85;0.70;;;;;;;16.33;100.00;99307.69;5022443;28;20055;-67
2023/09/22 08:59:22;;;;;;;2.35;0.57;;;;;;;16.44;100.00;99313.56;5027259;28;20397;-67
2023/09/22 09:02:06;;;;;;;1.92;0.68;;;;;;;16.63;100.00;99310.81;5041150;28;20044;-67
2023/09/22 09:04:51;;;;;;;4.65;0.75;;;;;;;16.74;100.00;99314.69;5036755;28;20039;-67
2023/09/22 09:07:35;;;;;;;1.58;0.52;;;;;;;16.85;100.00;99333.78;5042332;28;20674;-67
2023/09/22 09:10:32;;;;;;;3.55;0.60;;;;;;;16.95;100.00;99336.03;5016390;28;20506;-67
2023/09/22 09:13:20;;;;;;;5.13;0.60;;;;;;;17.06;100.00;99337.06;5031525;28;20040;-68
2023/09/22 09:16:09;;;;;;;2.28;0.60;;;;;;;17.18;100.00;99350.16;5000209;28;20095;-67
2023/09/22 09:19:16;;;;;;;1.67;0.60;;;;;;;17.32;100.00;99352.47;5015230;28;20051;-68
2023/09/22 09:22:08;;;;;;;5.35;0.55;;;;;;;17.48;100.00;99350.41;5019919;28;20051;-68
2023/09/22 09:24:53;;;;;;;2.22;0.40;;;;;;;17.63;100.00;99351.50;5045215;28;20127;-70
2023/09/22 09:27:39;;;;;;;2.67;0.50;;;;;;;17.76;100.00;99358.59;4997864;28;20052;-70
2023/09/22 09:30:23;;;;;;;1.73;0.50;;;;;;;17.90;100.00;99363.72;5042763;28;20052;-70
2023/09/22 09:33:12;;;;;;;2.80;0.40;;;;;;;18.01;100.00;99366.75;5003811;28;20095;-70
2023/09/22 09:35:56;;;;;;;1.92;0.60;;;;;;;18.09;100.00;99365.69;5024877;28;20047;-70
2023/09/22 09:38:43;;;;;;;1.77;0.40;;;;;;;18.15;100.00;99369.03;5044078;28;20048;-70
2023/09/22 09:41:27;;;;;;;2.35;0.88;;;;;;;18.18;100.00;99377.50;5030511;28;20616;-70
2023/09/22 09:44:11;;;;;;;2.28;0.35;;;;;;;18.22;100.00;99371.94;5004649;28;20123;-70
2023/09/22 09:46:55;;;;;;;3.92;0.70;;;;;;;18.27;100.00;99380.88;5018693;28;20048;-70
2023/09/22 09:49:40;;;;;;;3.90;0.60;;;;;;;18.32;100.00;99371.34;5030368;28;20503;-70
2023/09/22 09:52:26;;;;;;;5.78;0.70;;;;;;;18.39;100.00;99381.91;5030264;28;20071;-70
2023/09/22 09:55:14;;;;;;;5.05;0.63;;;;;;;18.52;100.00;99391.75;5021609;28;20043;-70
2023/09/22 09:57:59;;;;;;;2.35;0.60;;;;;;;18.67;100.00;99395.66;5030958;28;20496;-70
2023/09/22 10:00:43;;;;;;;3.40;0.50;;;;;;;18.83;100.00;99399.16;5014857;28;20104;-70
2023/09/22 10:03:28;;;;;;;2.20;0.47;;;;;;;18.92;100.00;99399.72;5044183;28;20554;-69
2023/09/22 10:06:13;;;;;;;3.95;0.60;;;;;;;19.05;100.00;99402.31;5030998;28;20067;-69
2023/09/22 10:08:58;;;;;;;3.35;0.50;;;;;;;19.10;100.00;99416.06;5033754;28;20123;-70
2023/09/22 10:11:42;;;;;;;3.63;0.70;;;;;;;19.21;100.00;99411.41;5043731;28;20063;-70
2023/09/22 10:14:46;;;;;;;4.38;0.60;;;;;;;19.30;100.00;99422.41;5021710;28;20066;-70
2023/09/22 10:17:31;;;;;;;5.28;0.60;;;;;;;19.29;100.00;99418.78;5030663;28;20040;-70
2023/09/22 10:20:17;;;;;;;2.20;0.50;;;;;;;19.33;100.00;99427.25;5032461;28;20124;-70
2023/09/22 10:23:34;;;;;;;4.78;0.50;;;;;;;19.31;100.00;99429.66;5029838;28;20111;-70
2023/09/22 10:26:19;;;;;;;2.10;0.60;;;;;;;19.35;100.00;99425.69;5023683;28;20040;-70
2023/09/22 10:29:35;;;;;;;4.82;0.75;;;;;;;19.37;100.00;99436.59;5009563;28;20103;-70
2023/09/22 10:32:24;;;;;;;5.82;0.98;;;;;;;19.36;100.00;99435.78;5030892;28;20071;-69
2023/09/22 10:35:14;;;;;;;5.18;0.82;;;;;;;19.33;100.00;99442.16;5043639;28;20048;-70
2023/09/22 10:38:00;;;;;;;4.93;0.70;;;;;;;19.37;100.00;99442.22;5011732;28;20044;-70
2023/09/22 10:41:02;;;;;;;3.00;0.70;;;;;;;19.40;100.00;99456.34;5029690;28;20099;-70
2023/09/22 10:43:57;;;;;;;4.18;0.73;;;;;;;19.42;100.00;99447.53;5037967;28;20128;-71
2023/09/22 10:46:55;;;;;;;3.28;0.60;;;;;;;19.50;100.00;99451.25;5028132;28;20044;-70
2023/09/22 10:49:39;;;;;;;5.72;0.70;;;;;;;19.58;100.00;99450.97;5026483;28;20076;-70
2023/09/22 10:52:23;;;;;;;2.35;0.77;;;;;;;19.68;100.00;99455.16;5042639;28;20557;-70
2023/09/22 10:55:07;;;;;;;3.28;0.52;;;;;;;19.82;100.00;99460.19;5019264;28;20044;-69
2023/09/22 10:57:53;;;;;;;6.20;0.70;;;;;;;19.91;100.00;99465.53;5008760;28;20048;-70
2023/09/22 11:00:45;;;;;;;3.28;0.90;;;;;;;20.04;100.00;99472.56;4972957;28;20091;-70
2023/09/22 11:03:29;;;;;;;2.80;0.68;;;;;;;20.14;100.00;99469.03;4991221;28;20081;-70
2023/09/22 11:06:14;;;;;;;3.80;0.70;;;;;;;20.23;100.00;99483.66;4990697;28;20104;-73
2023/09/22 11:08:59;;;;;;;2.58;0.70;;;;;;;20.33;100.00;99484.16;4988746;28;20116;-71
2023/09/22 11:11:46;;;;;;;3.78;0.85;;;;;;;20.41;100.00;99483.84;5018212;28;20041;-70
2023/09/22 11:14:33;;;;;;;3.03;0.90;;;;;;;20.52;100.00;99498.09;4973085;28;20068;-69
2023/09/22 11:17:22;;;;;;;2.85;0.75;;;;;;;20.58;100.00;99490.91;4990004;28;20064;-70
2023/09/22 11:20:12;;;;;;;2.47;0.90;;;;;;;20.60;100.00;99508.28;4969983;28;20057;-70
2023/09/22 11:23:00;;;;;;;3.15;0.88;;;;;;;20.61;100.00;99498.59;4967408;28;20526;-70
2023/09/22 11:25:53;;;;;;;3.83;0.95;;;;;;;20.57;99.19;99509.06;4983250;28;20040;-71
2023/09/22 11:28:40;;;;;;;;;;;;;;;20.46;99.34;99502.44;4989557;28;20053;-71
2023/09/22 11:31:24;;;;;;;2.83;0.75;;;;;;;20.46;100.00;99508.09;5002116;28;19924;-71
2023/09/22 11:34:08;;;;;;;3.65;0.77;;;;;;;20.43;100.00;99514.50;4969555;28;20049;-70
2023/09/22 11:36:52;;;;;;;1.80;0.50;;;;;;;20.37;100.00;99521.69;4988341;28;20045;-71
2023/09/22 11:39:36;;;;;;;1.52;0.50;;;;;;;20.37;100.00;99516.06;4970113;28;20097;-71
2023/09/22 11:42:20;;;;;;;6.05;1.08;;;;;;;20.23;100.00;99525.94;4972496;28;20121;-69
2023/09/22 11:45:05;;;;;;;2.10;0.52;;;;;;;20.21;100.00;99522.69;5002457;28;20052;-70
2023/09/22 11:47:49;;;;;;;4.85;0.88;;;;;;;20.25;100.00;99529.19;4989229;28;20505;-71
2023/09/22 11:50:33;;;;;;;3.15;0.70;;;;;;;20.19;100.00;99533.53;4982865;28;20125;-69
2023/09/22 11:53:17;;;;;;;2.28;0.68;;;;;;;20.20;97.68;99529.53;4989796;28;20045;-71
2023/09/22 11:56:02;;;;;;;3.28;0.73;;;;;;;20.20;94.57;99531.53;4990717;28;20045;-71
2023/09/22 11:58:47;;;;;;;2.15;0.50;;;;;;;20.24;95.27;99536.03;5002318;28;20052;-69
2023/09/22 12:01:31;;;;;;;1.58;0.50;;;;;;;20.26;95.23;99533.63;5007882;28;20105;-70
2023/09/22 12:04:16;;;;;;;2.17;0.50;;;;;;;20.34;99.15;99533.72;5021726;28;20040;-71
2023/09/22 12:07:01;;;;;;;2.25;0.52;;;;;;;20.36;99.37;99536.97;4988173;28;20053;-71
2023/09/22 12:09:45;;;;;;;1.48;0.40;;;;;;;20.35;98.55;99538.16;4984479;28;20107;-71
2023/09/22 12:12:29;;;;;;;2.40;0.57;;;;;;;20.35;97.47;99529.72;5008062;28;20068;-71
2023/09/22 12:15:13;;;;;;;2.45;0.60;;;;;;;20.43;99.24;99534.25;5005495;28;20044;-71
2023/09/22 12:17:57;;;;;;;2.47;0.60;;;;;;;20.50;100.00;99537.13;4996722;28;20059;-70
2023/09/22 12:20:42;;;;;;;1.83;0.70;;;;;;;20.61;100.00;99534.47;5036306;28;20035;-71
2023/09/22 12:23:26;;;;;;;2.63;0.63;;;;;;;20.68;100.00;99548.66;4992271;28;20069;-70
2023/09/22 12:26:10;;;;;;;3.10;0.57;;;;;;;20.78;100.00;99547.16;5007452;28;20052;-71
2023/09/22 12:28:54;;;;;;;2.50;0.50;;;;;;;20.81;99.51;99547.22;5007343;28;20171;-69
2023/09/22 12:31:38;;;;;;;3.00;0.82;;;;;;;20.94;100.00;99550.56;5007417;28;20051;-71
2023/09/22 12:34:22;;;;;;;2.92;0.68;;;;;;;21.07;100.00;99536.97;4993037;28;20112;-70
2023/09/22 12:37:06;;;;;;;2.53;0.50;;;;;;;21.14;99.86;99548.31;5003331;28;20072;-71
2023/09/22 12:39:50;;;;;;;3.88;0.50;;;;;;;21.25;100.00;99545.59;5007088;28;20049;-71
2023/09/22 12:42:35;;;;;;;2.03;0.50;;;;;;;21.35;100.00;99553.38;5007778;28;20080;-71
2023/09/22 12:45:20;;;;;;;4.25;0.60;;;;;;;21.42;100.00;99553.44;5011965;28;20047;-71
2023/09/22 12:48:05;;;;;;;2.58;0.80;;;;;;;21.54;100.00;99558.00;4997662;28;20247;-71
2023/09/22 12:50:55;;;;;;;2.40;0.70;;;;;;;21.55;100.00;99568.09;4997702;28;20043;-71